Time;durP1;ratioP1;P1;durP2;ratioP2;P2;SDS_P1;SDS_P2;PMS_P1;PMS_P2;Temp;Humidity;BMP_temperature;BMP_pressure;BME280_temperature;BME280_humidity;BME280_pressure;Samples;Min_cycle;Max_cycle;Signal;HPM_P1;HPM_P2
2023/10/11 00:04:23;;;;;;;20.60;12.57;;;;;;;;;;10536478;28;20024;-62
2023/10/11 00:09:38;;;;;;;20.40;11.25;;;;;;;;;;10536690;28;20032;-62
2023/10/11 00:14:39;;;;;;;19.85;11.85;;;;;;;;;;10535996;28;20028;-61
2023/10/11 00:19:40;;;;;;;22.45;12.50;;;;;;;;;;10535332;28;20016;-61
2023/10/11 00:24:40;;;;;;;16.80;11.70;;;;;;;;;;10535655;28;20035;-61
2023/10/11 00:29:41;;;;;;;14.07;10.00;;;;;;;;;;10535308;28;20020;-62
2023/10/11 00:34:41;;;;;;;19.65;10.95;;;;;;;;;;10535388;28;20267;-62
2023/10/11 00:39:43;;;;;;;13.48;9.68;;;;;;;;;;10535046;28;20024;-63
2023/10/11 00:44:44;;;;;;;21.23;10.57;;;;;;;;;;10535573;28;20028;-62
2023/10/11 00:49:45;;;;;;;16.35;9.90;;;;;;;;;;10534458;28;20102;-62
2023/10/11 00:54:46;;;;;;;17.40;8.95;;;;;;;;;;10534367;28;20031;-62
2023/10/11 00:59:46;;;;;;;12.85;8.65;;;;;;;;;;10534134;28;20403;-62
2023/10/11 01:04:47;;;;;;;14.60;8.90;;;;;;;;;;10534179;28;20047;-62
2023/10/11 01:09:48;;;;;;;21.70;9.10;;;;;;;;;;10533712;28;20036;-62
2023/10/11 01:14:57;;;;;;;16.00;8.00;;;;;;;;;;10534127;28;20020;-62
2023/10/11 01:19:59;;;;;;;19.30;8.38;;;;;;;;;;10533573;28;20025;-62
2023/10/11 01:25:01;;;;;;;15.85;7.65;;;;;;;;;;10533413;28;20021;-62
2023/10/11 01:30:03;;;;;;;12.75;7.80;;;;;;;;;;10533053;28;20065;-62
2023/10/11 01:35:18;;;;;;;18.35;7.53;;;;;;;;;;10533637;28;20085;-62
2023/10/11 01:40:24;;;;;;;14.85;8.40;;;;;;;;;;10533076;28;20043;-62
2023/10/11 01:45:24;;;;;;;16.98;7.50;;;;;;;;;;10533231;28;20040;-61
2023/10/11 01:50:25;;;;;;;11.95;7.03;;;;;;;;;;10532347;28;20044;-62
2023/10/11 01:55:25;;;;;;;16.63;7.85;;;;;;;;;;10532116;28;20040;-63
2023/10/11 02:00:29;;;;;;;13.80;7.55;;;;;;;;;;10532251;28;20020;-62
2023/10/11 02:05:31;;;;;;;12.40;7.45;;;;;;;;;;10532787;28;20286;-60
2023/10/11 02:10:36;;;;;;;12.90;7.15;;;;;;;;;;10532134;28;20468;-60
2023/10/11 02:15:38;;;;;;;16.08;7.82;;;;;;;;;;10532189;28;20398;-60
2023/10/11 02:20:45;;;;;;;12.57;7.38;;;;;;;;;;10532493;28;20040;-60
2023/10/11 02:25:46;;;;;;;16.55;7.82;;;;;;;;;;10532011;28;20417;-60
2023/10/11 02:30:46;;;;;;;11.30;7.20;;;;;;;;;;10532246;28;20028;-62
2023/10/11 02:35:56;;;;;;;15.93;8.20;;;;;;;;;;10531976;28;20035;-62
2023/10/11 02:40:57;;;;;;;17.45;8.07;;;;;;;;;;10531948;28;20506;-62
2023/10/11 02:45:59;;;;;;;13.65;8.05;;;;;;;;;;10531991;28;20024;-62
2023/10/11 02:51:13;;;;;;;15.07;7.78;;;;;;;;;;10531235;28;20051;-62
2023/10/11 02:56:15;;;;;;;13.75;8.30;;;;;;;;;;10532644;28;20124;-62
2023/10/11 03:01:22;;;;;;;13.95;7.70;;;;;;;;;;10531364;28;20028;-62
2023/10/11 03:06:22;;;;;;;14.15;7.30;;;;;;;;;;10531655;28;20024;-62
2023/10/11 03:11:23;;;;;;;14.75;7.63;;;;;;;;;;10539380;28;20036;-62
2023/10/11 03:16:23;;;;;;;15.15;7.03;;;;;;;;;;10538533;28;20102;-62
2023/10/11 03:21:33;;;;;;;14.30;7.93;;;;;;;;;;10537929;28;20020;-63
2023/10/11 03:26:38;;;;;;;16.05;7.47;;;;;;;;;;10538399;28;20494;-62
2023/10/11 03:31:40;;;;;;;13.07;7.65;;;;;;;;;;10538119;28;20054;-62
2023/10/11 03:36:52;;;;;;;15.50;7.18;;;;;;;;;;10538030;28;20429;-62
2023/10/11 03:42:06;;;;;;;19.27;7.22;;;;;;;;;;10537771;28;20035;-62
2023/10/11 03:47:24;;;;;;;16.88;7.35;;;;;;;;;;10537426;28;20055;-62
2023/10/11 03:52:30;;;;;;;14.38;7.22;;;;;;;;;;10537944;28;20103;-61
2023/10/11 03:57:36;;;;;;;13.60;6.47;;;;;;;;;;10537713;28;20034;-61
2023/10/11 04:02:37;;;;;;;13.90;6.90;;;;;;;;;;10536651;28;20353;-62
2023/10/11 04:07:40;;;;;;;18.25;6.88;;;;;;;;;;10536759;28;20088;-62
2023/10/11 04:12:42;;;;;;;14.38;6.55;;;;;;;;;;10537169;28;20056;-61
2023/10/11 04:17:48;;;;;;;12.82;7.00;;;;;;;;;;10535643;28;20097;-62
2023/10/11 04:22:51;;;;;;;16.52;7.07;;;;;;;;;;10536584;28;20020;-61
2023/10/11 04:27:57;;;;;;;9.43;5.95;;;;;;;;;;10536363;28;20028;-60
2023/10/11 04:33:01;;;;;;;11.00;6.40;;;;;;;;;;10535962;28;20031;-60
2023/10/11 04:38:03;;;;;;;16.48;6.60;;;;;;;;;;10536095;28;20032;-61
2023/10/11 04:43:23;;;;;;;15.82;7.38;;;;;;;;;;10536275;28;20077;-61
2023/10/11 04:48:41;;;;;;;12.50;6.78;;;;;;;;;;10534724;28;20433;-61
2023/10/11 04:58:59;;;;;;;14.48;7.15;;;;;;;;;;10535899;28;20028;-61
2023/10/11 05:03:59;;;;;;;13.98;6.43;;;;;;;;;;10535424;28;20112;-62
2023/10/11 05:09:13;;;;;;;14.73;6.43;;;;;;;;;;10534347;28;20032;-62
2023/10/11 05:14:29;;;;;;;15.27;5.70;;;;;;;;;;10534698;28;20047;-62
2023/10/11 05:19:35;;;;;;;11.35;6.00;;;;;;;;;;10533618;28;20517;-61
2023/10/11 05:25:12;;;;;;;12.00;5.82;;;;;;;;;;10534337;28;20020;-62
2023/10/11 05:50:55;;;;;;;13.35;6.00;;;;;;;;;;10532654;28;20122;-61
2023/10/11 05:55:57;;;;;;;12.40;6.05;;;;;;;;;;10532029;28;20619;-63
2023/10/11 06:01:05;;;;;;;14.38;6.53;;;;;;;;;;10531432;28;20028;-63
2023/10/11 06:06:23;;;;;;;11.80;5.43;;;;;;;;;;10533262;28;20035;-63
2023/10/11 06:11:29;;;;;;;11.37;5.77;;;;;;;;;;10532801;28;20032;-62
2023/10/11 06:16:37;;;;;;;16.10;5.47;;;;;;;;;;10533125;28;20024;-63
2023/10/11 06:21:55;;;;;;;16.88;6.07;;;;;;;;;;10531932;28;20096;-63
2023/10/11 06:27:11;;;;;;;14.07;5.55;;;;;;;;;;10532348;28;20085;-62
2023/10/11 06:32:12;;;;;;;10.27;5.70;;;;;;;;;;10532069;28;20024;-62
2023/10/11 06:37:34;;;;;;;10.57;5.63;;;;;;;;;;10531855;28;20031;-62
2023/10/11 06:42:35;;;;;;;14.85;5.68;;;;;;;;;;10535328;28;20081;-62
2023/10/11 06:47:36;;;;;;;17.75;5.72;;;;;;;;;;10538979;28;20036;-61
2023/10/11 06:52:44;;;;;;;13.27;6.18;;;;;;;;;;10539085;28;20039;-61
2023/10/11 06:57:50;;;;;;;17.52;6.05;;;;;;;;;;10539518;28;20024;-61
2023/10/11 07:08:20;;;;;;;23.35;6.03;;;;;;;;;;10538689;28;20028;-62
2023/10/11 07:13:21;;;;;;;12.50;5.70;;;;;;;;;;10537554;28;20031;-62
2023/10/11 07:18:29;;;;;;;9.27;5.45;;;;;;;;;;10538653;28;20035;-63
2023/10/11 07:23:45;;;;;;;17.52;5.88;;;;;;;;;;10539341;28;20537;-60
2023/10/11 07:28:50;;;;;;;16.67;5.13;;;;;;;;;;10538355;28;20040;-61
2023/10/11 07:33:55;;;;;;;16.73;5.75;;;;;;;;;;10538623;28;20085;-63
2023/10/11 07:38:55;;;;;;;11.32;5.80;;;;;;;;;;10538219;28;20024;-63
2023/10/11 07:43:57;;;;;;;18.20;6.38;;;;;;;;;;10537333;28;20028;-63
2023/10/11 07:49:06;;;;;;;16.10;6.07;;;;;;;;;;10536811;28;20044;-62
2023/10/11 07:54:07;;;;;;;15.93;4.93;;;;;;;;;;10536933;28;20516;-63
2023/10/11 07:59:12;;;;;;;12.93;5.40;;;;;;;;;;10537543;28;20035;-63
2023/10/11 08:04:18;;;;;;;12.95;5.50;;;;;;;;;;10536700;28;20479;-63
2023/10/11 08:09:19;;;;;;;15.32;5.80;;;;;;;;;;10537088;28;20103;-63
2023/10/11 08:14:23;;;;;;;14.77;5.40;;;;;;;;;;10537057;28;20422;-63
2023/10/11 08:19:23;;;;;;;8.32;4.40;;;;;;;;;;10536938;28;20298;-62
2023/10/11 08:24:28;;;;;;;10.55;4.70;;;;;;;;;;10536916;28;20258;-62
2023/10/11 08:29:29;;;;;;;12.10;5.25;;;;;;;;;;10535675;28;20383;-62
2023/10/11 08:34:29;;;;;;;13.35;5.63;;;;;;;;;;10535362;28;20029;-62
2023/10/11 08:39:36;;;;;;;11.52;5.13;;;;;;;;;;10535177;28;20028;-62
2023/10/11 08:44:44;;;;;;;16.05;5.32;;;;;;;;;;10535192;28;20059;-63
2023/10/11 08:49:48;;;;;;;14.50;5.38;;;;;;;;;;10534127;28;20064;-61
2023/10/11 08:54:49;;;;;;;11.85;5.15;;;;;;;;;;10535060;28;20024;-62
2023/10/11 08:59:50;;;;;;;14.10;4.93;;;;;;;;;;10534544;28;20044;-62
2023/10/11 09:05:06;;;;;;;11.45;5.07;;;;;;;;;;10532866;28;20031;-64
2023/10/11 09:10:28;;;;;;;9.52;5.55;;;;;;;;;;10534962;28;20024;-61
2023/10/11 09:15:44;;;;;;;12.95;4.80;;;;;;;;;;10534499;28;20111;-62
2023/10/11 09:20:55;;;;;;;12.13;5.45;;;;;;;;;;10534491;28;20021;-62
2023/10/11 09:25:59;;;;;;;11.52;5.78;;;;;;;;;;10533591;28;20085;-62
2023/10/11 09:31:21;;;;;;;12.02;5.10;;;;;;;;;;10533060;28;20502;-63
2023/10/11 09:36:24;;;;;;;9.63;4.88;;;;;;;;;;10533263;28;20028;-62
2023/10/11 09:41:39;;;;;;;17.83;5.70;;;;;;;;;;10531574;28;20032;-62
2023/10/11 09:46:43;;;;;;;15.68;5.57;;;;;;;;;;10533439;28;20525;-62
2023/10/11 09:51:44;;;;;;;13.82;4.88;;;;;;;;;;10533805;28;20376;-61
2023/10/11 09:56:58;;;;;;;12.48;4.68;;;;;;;;;;10534462;28;20036;-62
2023/10/11 10:02:13;;;;;;;10.35;4.63;;;;;;;;;;10532693;28;20052;-63
2023/10/11 10:07:13;;;;;;;13.35;5.40;;;;;;;;;;10531256;28;20028;-62
2023/10/11 10:12:20;;;;;;;11.55;4.97;;;;;;;;;;10532497;28;20032;-62
2023/10/11 10:17:20;;;;;;;11.80;5.60;;;;;;;;;;10536108;28;20409;-61
2023/10/11 10:22:31;;;;;;;14.05;5.28;;;;;;;;;;10543509;28;20032;-61
2023/10/11 10:27:34;;;;;;;15.05;5.00;;;;;;;;;;10542659;28;20387;-63
2023/10/11 10:32:36;;;;;;;8.13;4.75;;;;;;;;;;10542483;28;20111;-62
2023/10/11 10:37:56;;;;;;;8.75;4.35;;;;;;;;;;10542511;28;20027;-63
2023/10/11 10:43:19;;;;;;;13.25;4.63;;;;;;;;;;10543252;28;20038;-62
2023/10/11 10:48:25;;;;;;;7.63;4.68;;;;;;;;;;10540530;28;20088;-62
2023/10/11 10:53:37;;;;;;;9.18;4.68;;;;;;;;;;10541484;28;20024;-65
2023/10/11 10:58:39;;;;;;;13.13;4.65;;;;;;;;;;10541320;28;20395;-63
2023/10/11 11:03:41;;;;;;;9.45;4.85;;;;;;;;;;10539956;28;20039;-60
2023/10/11 11:08:42;;;;;;;9.93;4.65;;;;;;;;;;10540701;28;20024;-61
2023/10/11 11:13:43;;;;;;;10.10;4.75;;;;;;;;;;10539439;28;20035;-63
2023/10/11 11:18:44;;;;;;;12.93;4.50;;;;;;;;;;10539024;28;20039;-63
2023/10/11 11:23:46;;;;;;;10.93;4.75;;;;;;;;;;10538798;28;20027;-63
2023/10/11 11:28:51;;;;;;;8.45;4.65;;;;;;;;;;10537881;28;20391;-63
2023/10/11 11:34:08;;;;;;;10.43;4.45;;;;;;;;;;10538834;28;20460;-63
2023/10/11 11:39:36;;;;;;;9.63;4.35;;;;;;;;;;10536634;28;20449;-62
2023/10/11 11:44:36;;;;;;;;;;;;;;;;;;10539543;28;20232;-63
2023/10/11 11:49:37;;;;;;;11.40;4.33;;;;;;;;;;10538650;28;19928;-62
2023/10/11 11:54:37;;;;;;;9.82;4.63;;;;;;;;;;10538786;28;20808;-63
2023/10/11 11:59:39;;;;;;;9.75;5.10;;;;;;;;;;10538468;28;20544;-63
2023/10/11 12:04:44;;;;;;;10.48;4.68;;;;;;;;;;10538748;28;20119;-62
2023/10/11 12:10:23;;;;;;;15.57;5.05;;;;;;;;;;10538381;28;20024;-62
2023/10/11 12:15:24;;;;;;;10.68;4.70;;;;;;;;;;10448226;28;20237;-63
2023/10/11 12:20:34;;;;;;;9.73;5.00;;;;;;;;;;10448457;28;20072;-63
2023/10/11 12:25:39;;;;;;;14.55;4.68;;;;;;;;;;10448174;28;20037;-63
2023/10/11 12:30:44;;;;;;;9.68;4.72;;;;;;;;;;10448653;28;20056;-63
2023/10/11 12:35:45;;;;;;;9.55;5.13;;;;;;;;;;10448026;28;20025;-62
2023/10/11 12:40:45;;;;;;;10.43;5.18;;;;;;;;;;10443563;28;20025;-60
2023/10/11 12:45:46;;;;;;;11.68;5.50;;;;;;;;;;10440994;28;20037;-60
2023/10/11 12:50:48;;;;;;;18.52;5.35;;;;;;;;;;10484477;28;20044;-59
2023/10/11 12:55:49;;;;;;;12.20;5.15;;;;;;;;;;10534167;28;20365;-61
2023/10/11 13:00:58;;;;;;;9.45;4.95;;;;;;;;;;10533597;28;20021;-61
2023/10/11 13:06:03;;;;;;;11.80;4.88;;;;;;;;;;10534394;28;20056;-60
2023/10/11 13:11:11;;;;;;;14.88;5.28;;;;;;;;;;10534740;28;20466;-62
2023/10/11 13:16:26;;;;;;;11.35;4.70;;;;;;;;;;10535111;28;20034;-61
2023/10/11 13:21:33;;;;;;;9.73;5.18;;;;;;;;;;10534787;28;20024;-60
2023/10/11 13:26:35;;;;;;;15.13;5.05;;;;;;;;;;10534977;28;20024;-64
2023/10/11 13:31:36;;;;;;;9.05;5.03;;;;;;;;;;10534634;28;20118;-61
2023/10/11 13:36:39;;;;;;;9.23;4.35;;;;;;;;;;10534387;28;20031;-62
2023/10/11 13:41:39;;;;;;;8.88;5.18;;;;;;;;;;10530091;28;20133;-61
2023/10/11 13:46:40;;;;;;;7.68;4.53;;;;;;;;;;10533875;28;20122;-60
2023/10/11 13:51:40;;;;;;;8.27;4.97;;;;;;;;;;10532053;28;20032;-62
2023/10/11 13:56:41;;;;;;;23.92;6.32;;;;;;;;;;10532918;28;20032;-61
2023/10/11 14:07:14;;;;;;;31.27;6.75;;;;;;;;;;10533131;28;20016;-64
2023/10/11 14:12:18;;;;;;;30.67;7.18;;;;;;;;;;10533807;28;20024;-64
2023/10/11 14:17:24;;;;;;;26.75;6.90;;;;;;;;;;10533304;28;20468;-61
2023/10/11 14:22:25;;;;;;;29.27;6.43;;;;;;;;;;10534228;28;20031;-62
2023/10/11 14:27:27;;;;;;;28.35;6.93;;;;;;;;;;10533175;28;20027;-61
2023/10/11 14:32:27;;;;;;;31.00;6.63;;;;;;;;;;10531329;28;20036;-64
2023/10/11 14:37:29;;;;;;;23.35;6.45;;;;;;;;;;10532800;28;20093;-62
2023/10/11 14:42:30;;;;;;;31.42;8.10;;;;;;;;;;10531614;28;20024;-66
2023/10/11 14:47:30;;;;;;;16.33;6.20;;;;;;;;;;10530969;28;20040;-62
2023/10/11 14:52:31;;;;;;;24.92;6.72;;;;;;;;;;10531448;28;20086;-64
2023/10/11 14:57:31;;;;;;;18.67;6.20;;;;;;;;;;10531451;28;20024;-64
2023/10/11 15:02:32;;;;;;;19.90;5.43;;;;;;;;;;10533616;28;20054;-62
2023/10/11 15:07:33;;;;;;;16.70;6.00;;;;;;;;;;10539846;28;20028;-62
2023/10/11 15:12:33;;;;;;;21.92;6.68;;;;;;;;;;10538656;28;20050;-65
2023/10/11 15:17:34;;;;;;;18.67;6.50;;;;;;;;;;10538900;28;20024;-62
2023/10/11 15:22:34;;;;;;;13.77;5.70;;;;;;;;;;10539613;28;20043;-64
2023/10/11 15:27:35;;;;;;;14.77;5.95;;;;;;;;;;10537784;28;20056;-62
2023/10/11 15:32:39;;;;;;;16.33;7.07;;;;;;;;;;10537979;28;20027;-60
2023/10/11 15:37:44;;;;;;;14.15;6.25;;;;;;;;;;10536737;28;20107;-63
2023/10/11 15:42:46;;;;;;;14.43;6.65;;;;;;;;;;10536534;28;20024;-63
2023/10/11 15:47:47;;;;;;;15.27;7.00;;;;;;;;;;10537637;28;20055;-62
2023/10/11 15:52:51;;;;;;;17.73;7.50;;;;;;;;;;10537406;28;20506;-63
2023/10/11 15:57:55;;;;;;;14.32;6.70;;;;;;;;;;10537598;28;20107;-63
2023/10/11 16:02:55;;;;;;;15.30;6.72;;;;;;;;;;10535235;28;20377;-63
2023/10/11 16:07:56;;;;;;;14.23;7.10;;;;;;;;;;10537271;28;20019;-61
2023/10/11 16:12:57;;;;;;;12.85;6.88;;;;;;;;;;10536028;28;20027;-63
2023/10/11 16:17:57;;;;;;;12.02;7.25;;;;;;;;;;10535551;28;20024;-63
2023/10/11 16:22:58;;;;;;;15.35;7.38;;;;;;;;;;10536059;28;20226;-62
2023/10/11 16:27:58;;;;;;;16.83;7.18;;;;;;;;;;10535333;28;20032;-60
2023/10/11 16:33:00;;;;;;;12.77;6.70;;;;;;;;;;10535898;28;20028;-63
2023/10/11 16:38:00;;;;;;;12.13;6.45;;;;;;;;;;10536482;28;20039;-60
2023/10/11 16:43:02;;;;;;;11.23;6.93;;;;;;;;;;10535471;28;20510;-60
2023/10/11 16:48:04;;;;;;;10.68;6.57;;;;;;;;;;10530464;28;20063;-61
2023/10/11 16:53:08;;;;;;;12.73;6.53;;;;;;;;;;10531753;28;20043;-59
2023/10/11 16:58:09;;;;;;;9.07;5.65;;;;;;;;;;10534571;28;20531;-60
2023/10/11 17:03:13;;;;;;;10.10;6.10;;;;;;;;;;10529669;28;20036;-63
2023/10/11 17:08:14;;;;;;;12.18;6.22;;;;;;;;;;10534380;28;20028;-63
2023/10/11 17:13:15;;;;;;;11.10;5.88;;;;;;;;;;10534216;28;20027;-63
2023/10/11 17:18:15;;;;;;;10.45;6.07;;;;;;;;;;10534260;28;20056;-61
2023/10/11 17:23:16;;;;;;;11.48;6.22;;;;;;;;;;10533265;28;20047;-63
2023/10/11 17:28:17;;;;;;;17.77;6.50;;;;;;;;;;10531986;28;20028;-61
2023/10/11 17:33:17;;;;;;;11.23;6.55;;;;;;;;;;10534033;28;20085;-61
2023/10/11 17:38:18;;;;;;;8.80;6.35;;;;;;;;;;10531163;28;20032;-64
2023/10/11 17:43:21;;;;;;;10.65;5.82;;;;;;;;;;10532829;28;20031;-61
2023/10/11 17:48:23;;;;;;;16.35;6.15;;;;;;;;;;10532756;28;20461;-62
2023/10/11 17:53:24;;;;;;;13.00;6.13;;;;;;;;;;10533096;28;20028;-63
2023/10/11 17:58:27;;;;;;;10.02;6.22;;;;;;;;;;10532437;28;20020;-62
2023/10/11 18:03:27;;;;;;;10.20;6.07;;;;;;;;;;10532946;28;20027;-62
2023/10/11 18:08:30;;;;;;;9.48;5.80;;;;;;;;;;10532383;28;20418;-64
2023/10/11 18:13:30;;;;;;;10.90;7.07;;;;;;;;;;10533285;28;20032;-63
2023/10/11 18:18:33;;;;;;;10.27;6.93;;;;;;;;;;10532167;28;20032;-64
2023/10/11 18:23:34;;;;;;;10.32;6.43;;;;;;;;;;10530660;28;20028;-61
2023/10/11 18:28:35;;;;;;;10.15;6.70;;;;;;;;;;10530699;28;20036;-63
2023/10/11 18:33:38;;;;;;;9.73;6.60;;;;;;;;;;10532262;28;20411;-64
2023/10/11 18:38:38;;;;;;;11.70;6.57;;;;;;;;;;10535763;28;20047;-64
2023/10/11 18:43:39;;;;;;;14.15;7.20;;;;;;;;;;10536695;28;20028;-62
2023/10/11 18:48:40;;;;;;;11.88;7.43;;;;;;;;;;10538038;28;20047;-63
2023/10/11 18:53:40;;;;;;;8.75;6.28;;;;;;;;;;10536370;28;20101;-61
2023/10/11 18:58:41;;;;;;;13.07;8.02;;;;;;;;;;10537807;28;20101;-63
2023/10/11 19:03:41;;;;;;;12.65;7.40;;;;;;;;;;10537425;28;20475;-61
2023/10/11 19:08:43;;;;;;;14.43;7.65;;;;;;;;;;10539391;28;20032;-62
2023/10/11 19:13:44;;;;;;;14.38;8.25;;;;;;;;;;10538730;28;20020;-62
2023/10/11 19:18:46;;;;;;;13.32;8.10;;;;;;;;;;10538167;28;20379;-62
2023/10/11 19:23:47;;;;;;;18.77;8.70;;;;;;;;;;10539272;28;20020;-62
2023/10/11 19:28:48;;;;;;;16.13;7.93;;;;;;;;;;10537917;28;20063;-62
2023/10/11 19:33:48;;;;;;;13.40;8.02;;;;;;;;;;10537734;28;20032;-62
2023/10/11 19:38:49;;;;;;;12.60;8.77;;;;;;;;;;10537284;28;20035;-60
2023/10/11 19:43:51;;;;;;;17.73;8.02;;;;;;;;;;10537460;28;20254;-62
2023/10/11 19:48:52;;;;;;;16.88;8.65;;;;;;;;;;10535958;28;20048;-61
2023/10/11 19:53:53;;;;;;;17.75;8.68;;;;;;;;;;10534938;28;20176;-59
2023/10/11 19:58:57;;;;;;;17.15;8.88;;;;;;;;;;10535831;28;20028;-63
2023/10/11 20:03:58;;;;;;;18.90;8.23;;;;;;;;;;10536168;28;20024;-60
2023/10/11 20:09:02;;;;;;;21.90;8.05;;;;;;;;;;10535623;28;20031;-62
2023/10/11 20:14:02;;;;;;;15.15;8.50;;;;;;;;;;10527442;28;20032;-64
2023/10/11 20:19:04;;;;;;;26.52;9.13;;;;;;;;;;10534035;28;20384;-62
2023/10/11 20:24:06;;;;;;;16.30;8.25;;;;;;;;;;10533651;28;20023;-62
2023/10/11 20:29:07;;;;;;;13.98;7.80;;;;;;;;;;10535207;28;20464;-64
2023/10/11 20:34:08;;;;;;;17.88;7.93;;;;;;;;;;10535840;28;20020;-63
2023/10/11 20:39:09;;;;;;;17.80;7.50;;;;;;;;;;10536228;28;20024;-61
2023/10/11 20:44:11;;;;;;;15.32;6.82;;;;;;;;;;10536505;28;20368;-64
2023/10/11 20:49:12;;;;;;;12.70;7.20;;;;;;;;;;10535834;28;20395;-66
2023/10/11 20:54:13;;;;;;;16.08;7.82;;;;;;;;;;10536420;28;20401;-64
2023/10/11 20:59:15;;;;;;;22.08;7.82;;;;;;;;;;10535471;28;20039;-65
2023/10/11 21:04:16;;;;;;;21.58;7.60;;;;;;;;;;10534527;28;20103;-64
2023/10/11 21:09:20;;;;;;;15.20;7.43;;;;;;;;;;10534977;28;20032;-64
2023/10/11 21:14:20;;;;;;;16.17;7.53;;;;;;;;;;10531355;28;20391;-65
2023/10/11 21:19:21;;;;;;;14.07;6.78;;;;;;;;;;10533302;28;20027;-60
2023/10/11 21:24:22;;;;;;;22.20;6.93;;;;;;;;;;10530464;28;20024;-60
2023/10/11 21:29:23;;;;;;;14.55;6.88;;;;;;;;;;10534203;28;20020;-59
2023/10/11 21:34:24;;;;;;;13.85;6.78;;;;;;;;;;10533124;28;20042;-63
2023/10/11 21:39:25;;;;;;;16.50;7.18;;;;;;;;;;10533454;28;20020;-60
2023/10/11 21:44:25;;;;;;;34.08;7.07;;;;;;;;;;10530935;28;20038;-61
2023/10/11 21:49:26;;;;;;;17.13;6.65;;;;;;;;;;10531275;28;20040;-61
2023/10/11 21:54:28;;;;;;;28.67;7.07;;;;;;;;;;10531349;28;20498;-62
2023/10/11 21:59:29;;;;;;;20.38;7.45;;;;;;;;;;10532497;28;20032;-64
2023/10/11 22:04:29;;;;;;;16.67;7.88;;;;;;;;;;10532620;28;20024;-61
2023/10/11 22:09:30;;;;;;;11.80;6.90;;;;;;;;;;10532659;28;20032;-63
2023/10/11 22:14:31;;;;;;;26.73;7.80;;;;;;;;;;10531976;28;20051;-66
2023/10/11 22:19:34;;;;;;;15.20;7.45;;;;;;;;;;10533090;28;20035;-65
2023/10/11 22:24:37;;;;;;;21.90;7.88;;;;;;;;;;10532296;28;20368;-66
2023/10/11 22:29:38;;;;;;;18.80;7.95;;;;;;;;;;10532381;28;20384;-63
2023/10/11 22:34:40;;;;;;;14.88;7.57;;;;;;;;;;10533187;28;20043;-63
2023/10/11 22:39:42;;;;;;;15.82;7.43;;;;;;;;;;10532447;28;20069;-67
2023/10/11 22:44:42;;;;;;;16.38;7.30;;;;;;;;;;10532774;28;20456;-63
2023/10/11 22:49:43;;;;;;;18.88;7.30;;;;;;;;;;10532085;28;20415;-66
2023/10/11 22:54:43;;;;;;;14.95;7.85;;;;;;;;;;10532163;28;20426;-66
2023/10/11 22:59:45;;;;;;;11.82;7.53;;;;;;;;;;10531838;28;20384;-65
2023/10/11 23:04:48;;;;;;;10.68;7.25;;;;;;;;;;10531823;28;20549;-64
2023/10/11 23:09:51;;;;;;;18.73;7.82;;;;;;;;;;10531547;28;20028;-63
2023/10/11 23:14:54;;;;;;;12.95;7.68;;;;;;;;;;10531699;28;20105;-66
2023/10/11 23:19:54;;;;;;;12.40;7.47;;;;;;;;;;10531949;28;20020;-66
2023/10/11 23:24:57;;;;;;;17.02;8.15;;;;;;;;;;10534209;28;20071;-65
2023/10/11 23:29:58;;;;;;;17.35;7.85;;;;;;;;;;10539081;28;20054;-64
2023/10/11 23:35:11;;;;;;;16.38;8.15;;;;;;;;;;10539145;28;20111;-66
2023/10/11 23:40:21;;;;;;;11.68;6.70;;;;;;;;;;10538898;28;20028;-65
2023/10/11 23:45:21;;;;;;;14.30;8.45;;;;;;;;;;10538317;28;20020;-64
2023/10/11 23:50:35;;;;;;;11.90;7.43;;;;;;;;;;10537673;28;20453;-65
2023/10/11 23:55:40;;;;;;;10.48;7.57;;;;;;;;;;10537495;28;20024;-65
